Alfonso Castelli

Chief Scout - Torino
19 Nov 2028
Sunday
Process

Personality

Adaptability (20) Ambition (1) Controversy (14) Loyalty (4) Pressure (6) Professionalism (5) Sportsmanship (9) Temperament (4)

Profile

Coaching Style Democratic
License Continental Pro
Determination 8
Man Management 14
Motivating 14
Discipline 14
Job Satisfaction
70%
Fatigue
0%
Role Chief Scout
Wage 38.8K p/w
Contract 14.03.2030

Performance

Behaviour Good
Training Effectiveness
39%
Player Development
50%
Injury Prevention
65%
Tactical Implementation
35%

Recent Events

Attended a recruitment meeting now
Attended a recruitment meeting now
Recommended a transfer target now
Recommended a transfer target now
Recommended a transfer target now
Recommended a transfer target now
Attended a recruitment meeting now
Assessed a player 7d ago

Currently Monitoring

136
Player Club Status Ability Confidence Watched Last Observed Latest Vote
Riquelme Thompson-Jones Accrington Stanley Active 112 / 117 40% 3 18.11.2028 -
Celías Ingenthron Platense Active 109 / 129 40% 3 18.11.2028 -
Jan Bürger Northampton Town Active 124 / 125 40% 2 18.11.2028 -
Veljko Milosavljević Bournemouth Active 143 / 154 40% 5 17.11.2028 -
Miguel Figueiredo Benfica Active 132 / 135 40% 1 17.11.2028 -
Christos Mouzakitis Hull City Active 139 / 152 40% 5 11.11.2028 -
Josh King Newcastle United Active 154 / 152 40% 1 11.11.2028 -
Tyler Fletcher Rotherham United Active 113 / 124 40% 1 11.11.2028 -
Diego León Rotherham United Active 130 / 131 40% 2 10.11.2028 -
Cheveyo Tsawa Club Brugge Active 134 / 139 40% 1 10.11.2028 -
Davinchi Getafe Active 125 / 135 40% 1 08.11.2028 -
Matteo Palma Udinese Active 128 / 140 40% 1 07.11.2028 -
Louis Page Leicester City Active 131 / 142 40% 3 06.11.2028 -
Felipe Pujol Vélez Active 110 / 123 40% 1 06.11.2028 -
Mateo Caballero Defensor Sporting Active 110 / 106 40% 1 06.10.2028 -
Kwesi Sorotu Badori Berekum Chelsea Active 98 / 107 40% 1 06.10.2028 -
Máximo Magnoli Ferro Carril Oeste Active 94 / 107 40% 1 06.10.2028 -
Giovanni Leoni Lincoln City Active 147 / 147 40% 1 02.10.2028 -
Luka Vušković Tottenham Active 152 / 158 40% 1 06.09.2028 -
Tobías Andrada River Plate Active 119 / 125 40% 2 05.09.2028 -
Azizbek To'lqinbekov Bunyodkor Active 103 / 102 40% 1 05.09.2028 -
Tobías Ramírez River Plate Active 133 / 138 40% 1 04.09.2028 -
Simone Zanon Carrarese Report Ready 126 / 134 72% 1 28.08.2028 -
Emanuele Zuelli Padova Report Ready 132 / 131 72% 1 24.07.2028 -
Ayden Heaven Portsmouth Active 153 / 154 40% 2 19.06.2028 -
Musa Danjuma Umraniyespor Active 99 / 104 40% 1 19.06.2028 -
Trey Nyoni Rotherham United Active 138 / 148 40% 1 31.05.2028 -
Dion Beljo AJ Auxerre Active 131 / 132 66% 1 01.01.2028 -
Mateo Retegui Atlético Madrid Active 156 / 156 68% 1 01.01.2028 -
Sindre Walle Egeli Udinese Active 144 / 137 40% 2 31.12.2027 -
Senny Mayulu Paris Saint-Germain Active 152 / 149 40% 1 31.12.2027 -
Kevin Filling AIK Active 110 / 111 40% 1 31.12.2027 -
Víctor Guzmán Sporting CP Active 97 / 104 40% 1 05.07.2027 -
Franculino Brighton Active 136 / 140 67% 1 01.06.2027 Approve
Tommaso Pobega Bologna Active 138 / 131 40% 14 30.05.2027 -
Trevoh Chalobah Como Active 162 / 149 40% 8 29.05.2027 -
Oumar Solet Udinese Active 147 / 151 40% 5 29.05.2027 -
Tiago Freitas Benfica Active 106 / 111 40% 3 29.05.2027 -
Rhys Walters Port Vale Active 100 / 101 40% 1 29.05.2027 -
Riley Owen Stevenage Active 101 / 115 40% 1 28.05.2027 -
Evan N'Dicka AS Roma Active 152 / 154 40% 6 26.05.2027 -
Diego Gómez Brighton Active 148 / 143 40% 7 24.05.2027 -
Lewis Ferguson Bologna Active 151 / 140 40% 5 24.05.2027 -
Manu Koné AS Roma Active 165 / 159 40% 10 23.05.2027 -
Nicolò Fagioli Fiorentina Active 141 / 141 40% 5 23.05.2027 -
Kenneth Taylor Lazio Active 151 / 154 40% 5 22.05.2027 -
Wesley AS Roma Active 151 / 155 40% 1 22.05.2027 -
Marco Brescianini Fiorentina Active 140 / 133 40% 3 21.05.2027 -
Bade Aluko Leicester City Active 113 / 121 40% 1 21.05.2027 -
Giorgio Scalvini Atalanta Active 147 / 145 40% 7 20.05.2027 -
Alessandro Buongiorno Cagliari Active 152 / 155 40% 13 18.05.2027 -
Juan Miranda Bologna Active 145 / 135 40% 1 18.05.2027 -
Nicolò Rovella Lazio Active 155 / 143 40% 4 16.05.2027 -
Raoul Bellanova Atalanta Active 158 / 151 40% 7 16.05.2027 -
Bernardo Lima Porto Active 98 / 101 40% 1 16.05.2027 -
Lucas Da Cunha Como Active 145 / 137 40% 11 14.05.2027 -
Nuno Tavares Lazio Active 141 / 148 40% 8 14.05.2027 -
Odilon Kossounou Atalanta Active 138 / 152 40% 10 12.05.2027 -
Kiani Inge Groningen Active 101 / 105 40% 2 07.05.2027 -
Riyad Idrissi Cagliari Active 129 / 133 40% 1 07.05.2027 -
Enrico Delprato Parma Active 141 / 132 40% 7 01.05.2027 -
Adrián Bernabé Parma Active 136 / 142 40% 4 30.04.2027 -
Billy Gilmour Napoli Active 147 / 148 40% 6 26.04.2027 -
Gonçalo Oliveira Benfica Active 109 / 116 40% 1 23.04.2027 -
Mario Gila AC Milan Active 158 / 146 40% 5 21.04.2027 -
Arthur Atta Fiorentina Active 142 / 137 40% 10 20.04.2027 -
Hans Nicolussi Caviglia Parma Active 141 / 135 40% 4 17.04.2027 -
Curtis Jones Inter Active 156 / 161 40% 4 06.04.2027 -
Martim Cunha Porto Active 102 / 101 40% 2 01.04.2027 -
David Ozoh Derby County Active 115 / 127 40% 1 01.04.2027 -
Jordan Zemura Udinese Active 129 / 134 40% 6 24.03.2027 -
Vittorio Magni Cesena Active 94 / 107 40% 1 19.03.2027 -
Cemran Dansin Orlando Pirates Active 106 / 121 40% 1 13.03.2027 -
Sascha Britschgi AC Milan Active 117 / 122 40% 1 13.03.2027 -
Alessandro Bastoni Inter Active 160 / 160 40% 2 06.03.2027 -
Eivind Helland AC Milan Active 123 / 136 40% 1 05.03.2027 -
Kazunari Kita Real Sociedad Active 92 / 99 40% 1 03.03.2027 -
Thierry Rendall Correia Venezia Active 141 / 145 40% 3 20.02.2027 Monitor
Gustavo Mantuan Zenit Active 129 / 127 40% 1 14.02.2027 -
Ilyas Ansah Hull City Active 136 / 139 40% 2 07.02.2027 -
Erick Marcus Ludogorets Active 124 / 113 40% 1 07.02.2027 -
Diego Moreira AC Milan Active 151 / 148 40% 1 05.02.2027 -
Ivan Smolčić Como Active 128 / 124 72% 1 25.01.2027 Approve
Gianluca Busio Venezia Active 133 / 129 72% 1 03.01.2027 Approve
Marcel Ruiz Crystal Palace Active 140 / 141 68% 1 01.01.2027 Approve
Nicolò Zaniolo Udinese Active 143 / 139 40% 10 30.12.2026 -
Giacomo Raspadori Atalanta Active 144 / 153 40% 7 29.12.2026 -
Santiago Pierotti Lecce Active 129 / 123 40% 8 29.12.2026 -
Luca Moro Padova Active 123 / 124 40% 4 27.12.2026 -
Ivo Mammini Beitar Jerusalem Active 113 / 115 40% 2 27.12.2026 -
Armstrong Oko-Flex Levski Active 125 / 115 40% 5 26.12.2026 -
Giorgi Kvernadze Frosinone Active 120 / 131 40% 3 25.12.2026 -
Mateo Pellegrino Fiorentina Active 134 / 138 40% 8 23.12.2026 -
Lorenzo Colombo Genoa Active 137 / 138 40% 8 23.12.2026 -
Gonçalo Ramos AC Milan Active 156 / 152 40% 7 20.12.2026 Monitor
Andrea Pinamonti Lazio Active 143 / 133 40% 6 15.12.2026 -
Amin Sarr Hellas Verona Active 133 / 127 40% 6 07.12.2026 -
Sota Kitano Red Bull Salzburg Active 120 / 119 40% 3 05.12.2026 -
Willem Geubbels Lecce Active 125 / 126 40% 1 04.12.2026 -
Matteo Rover Reggiana Active 126 / 125 40% 3 02.12.2026 -
Martin Baturina Como Active 133 / 138 40% 1 28.11.2026 -
Gianluca Scamacca Atalanta Active 141 / 144 40% 5 26.11.2026 -
Vitinha Genoa Active 125 / 124 40% 3 15.11.2026 -
Kévin Denkey FC Cincinnati Active 131 / 133 40% 4 14.11.2026 -
Mattia Felici Cagliari Active 124 / 123 40% 1 13.11.2026 -
Martín Ojeda Orlando City Active 135 / 140 40% 3 12.11.2026 -
Tadeo Allende Inter Miami CF Active 129 / 119 40% 1 12.11.2026 -
Donyell Malen AS Roma Active 148 / 150 40% 3 05.11.2026 -
Talles Magno New York City Active 133 / 131 40% 5 05.11.2026 -
Justo Giani Umraniyespor Active 126 / 129 40% 1 01.11.2026 -
Nicolò Cambiaghi Bologna Active 133 / 136 40% 1 31.10.2026 -
Yousef Salech Cardiff City Active 129 / 124 40% 3 27.10.2026 -
Iliman N'Diaye Everton Active 153 / 162 40% 1 27.10.2026 -
Mohamed-Ali Cho Hull City Active 134 / 142 40% 2 25.10.2026 -
Cody Gakpo Liverpool Active 156 / 160 40% 4 22.10.2026 -
David Romero Parma Active 131 / 126 40% 1 22.10.2026 -
Rodrigo Muniz Fulham Active 137 / 137 40% 3 21.10.2026 -
Nicolò Tresoldi Club Brugge Active 136 / 138 40% 3 19.10.2026 -
Assad Al Hamlawi Universitatea Craiova Active 117 / 113 40% 2 16.10.2026 -
Jesus Ferreira Seattle Sounders Active 128 / 130 40% 4 14.10.2026 -
Alexander Díaz Deportivo Riestra Active 121 / 119 40% 1 09.10.2026 -
Alejandro Piedrahita Deportivo Pereira Active 123 / 118 40% 2 04.10.2026 -
Wessam Abou Ali Columbus Crew Active 124 / 126 40% 2 27.09.2026 -
Alexander Aravena Portland Timbers Active 127 / 125 40% 1 25.09.2026 -
Josh Sargent Toronto FC Active 126 / 128 40% 1 25.09.2026 -
Aune Heggebø West Bromwich Albion Active 122 / 122 40% 2 23.09.2026 -
Patson Daka Leicester City Active 129 / 119 40% 1 23.09.2026 -
Alexis Cuello San Lorenzo Active 117 / 131 40% 1 23.09.2026 -
Germán Berterame Inter Miami CF Active 131 / 131 40% 1 17.09.2026 -
Joshua Zirkzee Manchester United Active 148 / 137 40% 1 17.09.2026 -
Bénie Traoré New York City Active 121 / 121 40% 1 11.09.2026 -
Georginio Rutter Brighton Active 148 / 140 40% 1 08.09.2026 -
Alejo Cruz Juventud Active 117 / 113 40% 1 07.09.2026 -
Christian Pulisic AC Milan Active 162 / 153 40% 2 05.09.2026 -
Kelvin Yeboah Minnesota United FC Active 127 / 117 40% 1 19.08.2026 -
Nicolas Jackson Aston Villa Active 143 / 142 40% 1 01.08.2026 -